Time;durP1;ratioP1;P1;durP2;ratioP2;P2;SDS_P1;SDS_P2;PMS_P1;PMS_P2;Temp;Humidity;BMP_temperature;BMP_pressure;BME280_temperature;BME280_humidity;BME280_pressure;Samples;Min_cycle;Max_cycle;Signal;HPM_P1;HPM_P2
2022/04/21 00:01:01;;;;;;;4.20;3.80;;;9.30;99.90;;;;;;4896647;29;20324;-63
2022/04/21 00:03:30;;;;;;;4.93;3.67;;;9.30;99.90;;;;;;4897689;29;20241;-63
2022/04/21 00:05:59;;;;;;;4.33;3.40;;;9.20;99.90;;;;;;4902058;29;20233;-63
2022/04/21 00:08:27;;;;;;;4.93;3.40;;;9.20;99.90;;;;;;4897469;29;20238;-63
2022/04/21 00:10:55;;;;;;;4.37;3.40;;;9.20;99.90;;;;;;4896024;29;20252;-62
2022/04/21 00:13:23;;;;;;;3.50;3.20;;;9.20;99.90;;;;;;4896762;29;20301;-63
2022/04/21 00:15:51;;;;;;;4.83;3.23;;;9.20;99.90;;;;;;4907461;29;20261;-63
2022/04/21 00:18:19;;;;;;;4.47;3.67;;;9.20;99.90;;;;;;4898467;29;20245;-63
2022/04/21 00:20:49;;;;;;;4.90;3.50;;;9.20;99.90;;;;;;4898835;29;20703;-63
2022/04/21 00:23:29;;;;;;;4.23;3.53;;;9.20;99.90;;;;;;4896148;29;20609;-63
2022/04/21 00:25:58;;;;;;;4.00;3.43;;;9.10;99.90;;;;;;4896038;29;20256;-63
2022/04/21 00:28:28;;;;;;;5.00;3.63;;;9.00;99.90;;;;;;4895733;29;20238;-63
2022/04/21 00:30:57;;;;;;;4.63;3.57;;;9.00;99.90;;;;;;4896214;29;20724;-63
2022/04/21 00:33:25;;;;;;;4.40;3.07;;;9.00;99.90;;;;;;4901382;29;20300;-63
2022/04/21 00:35:54;;;;;;;3.97;3.57;;;9.00;99.90;;;;;;4896020;29;20249;-63
2022/04/21 00:38:23;;;;;;;4.77;3.27;;;8.90;99.90;;;;;;4896052;29;20289;-63
2022/04/21 00:40:51;;;;;;;4.27;3.87;;;8.90;99.90;;;;;;4895786;29;20699;-62
2022/04/21 00:43:21;;;;;;;3.53;3.23;;;8.80;99.90;;;;;;4897026;29;20241;-62
2022/04/21 00:45:51;;;;;;;3.90;3.50;;;8.90;99.90;;;;;;4902520;29;20253;-63
2022/04/21 00:48:19;;;;;;;4.17;3.43;;;8.90;99.90;;;;;;4895715;29;20732;-63
2022/04/21 00:50:47;;;;;;;3.57;3.27;;;8.90;99.90;;;;;;4895830;29;20324;-63
2022/04/21 00:53:17;;;;;;;4.07;3.43;;;8.90;99.90;;;;;;4895542;29;20324;-62
2022/04/21 00:55:45;;;;;;;4.77;3.63;;;8.80;99.90;;;;;;4899876;29;20284;-62
2022/04/21 00:58:13;;;;;;;5.00;3.60;;;8.70;99.90;;;;;;4898775;29;20272;-63
2022/04/21 01:00:41;;;;;;;6.77;4.10;;;8.70;99.90;;;;;;4895645;29;20244;-62
2022/04/21 01:03:10;;;;;;;4.60;4.00;;;8.60;99.90;;;;;;4901347;29;20296;-63
2022/04/21 01:05:38;;;;;;;5.73;3.53;;;8.50;99.90;;;;;;4887737;29;20233;-63
2022/04/21 01:08:08;;;;;;;6.27;3.60;;;8.40;99.90;;;;;;4895482;29;20241;-63
2022/04/21 01:10:39;;;;;;;5.50;4.00;;;8.40;99.90;;;;;;4895242;29;20245;-62
2022/04/21 01:13:09;;;;;;;4.65;3.85;;;8.30;99.90;;;;;;4895907;29;20276;-62
2022/04/21 01:15:37;;;;;;;4.50;3.60;;;8.20;99.90;;;;;;4904695;29;20240;-63
2022/04/21 01:18:07;;;;;;;5.60;4.03;;;8.20;99.90;;;;;;4899896;29;20244;-62
2022/04/21 01:20:37;;;;;;;5.57;4.07;;;8.10;99.90;;;;;;4894989;29;20647;-62
2022/04/21 01:23:05;;;;;;;4.13;3.73;;;8.10;99.90;;;;;;4896720;29;20238;-62
2022/04/21 01:25:38;;;;;;;4.83;3.27;;;8.00;99.90;;;;;;4898942;29;20762;-63
2022/04/21 01:28:09;;;;;;;4.30;3.60;;;7.90;99.90;;;;;;4898213;29;20269;-63
2022/04/21 01:30:38;;;;;;;4.13;3.70;;;7.90;99.90;;;;;;4899320;29;20737;-63
2022/04/21 01:33:07;;;;;;;5.73;3.93;;;7.90;99.90;;;;;;4904212;29;20657;-62
2022/04/21 01:35:36;;;;;;;7.43;3.60;;;7.90;99.90;;;;;;4899640;29;20245;-62
2022/04/21 01:43:37;;;;;;;4.67;3.67;;;8.00;99.90;;;;;;4900068;29;20702;-62
2022/04/21 01:46:06;;;;;;;4.67;3.80;;;8.00;99.90;;;;;;4912230;29;20664;-62
2022/04/21 01:48:34;;;;;;;5.73;3.60;;;8.00;99.90;;;;;;4899234;29;20244;-62
2022/04/21 01:51:03;;;;;;;5.17;4.23;;;8.10;99.90;;;;;;4899331;29;20241;-62
2022/04/21 01:53:32;;;;;;;6.00;4.40;;;8.00;99.90;;;;;;4898274;29;20248;-62
2022/04/21 01:56:00;;;;;;;4.83;3.77;;;7.90;99.90;;;;;;4898901;29;20721;-62
2022/04/21 01:58:28;;;;;;;4.23;3.83;;;7.90;99.90;;;;;;4898320;29;20237;-62
2022/04/21 02:00:56;;;;;;;5.40;3.90;;;7.80;99.90;;;;;;4898613;29;20339;-62
2022/04/21 02:03:24;;;;;;;4.50;3.80;;;7.90;99.90;;;;;;4904597;29;20252;-62
2022/04/21 02:05:52;;;;;;;4.90;4.10;;;7.90;99.90;;;;;;4898827;29;20241;-62
2022/04/21 02:08:22;;;;;;;4.93;3.93;;;7.90;99.90;;;;;;4898557;29;20252;-62
2022/04/21 02:10:50;;;;;;;4.53;4.13;;;7.90;99.90;;;;;;4898585;29;20249;-62
2022/04/21 02:13:18;;;;;;;5.30;3.70;;;7.80;99.90;;;;;;4899609;29;20272;-62
2022/04/21 02:15:46;;;;;;;4.37;3.93;;;7.80;99.90;;;;;;4908844;29;20296;-62
2022/04/21 02:18:15;;;;;;;6.27;4.23;;;7.80;99.90;;;;;;4901486;29;20245;-62
2022/04/21 02:20:43;;;;;;;6.00;4.03;;;7.90;99.90;;;;;;4904590;29;20236;-62
2022/04/21 02:23:11;;;;;;;5.10;3.77;;;7.90;99.90;;;;;;4901854;29;20240;-62
2022/04/21 02:25:40;;;;;;;6.30;4.23;;;7.90;99.90;;;;;;4898129;29;20647;-62
2022/04/21 02:28:09;;;;;;;5.97;4.33;;;7.70;99.90;;;;;;4898222;29;20229;-62
2022/04/21 02:30:38;;;;;;;4.67;3.87;;;7.70;99.90;;;;;;4882686;29;20245;-62
2022/04/21 02:33:06;;;;;;;5.07;4.00;;;7.70;99.90;;;;;;4903495;29;20233;-62
2022/04/21 02:35:34;;;;;;;5.27;4.17;;;7.60;99.90;;;;;;4897838;29;20587;-62
2022/04/21 02:38:02;;;;;;;7.03;3.97;;;7.70;99.90;;;;;;4898328;29;20244;-62
2022/04/21 02:40:31;;;;;;;6.07;4.00;;;7.70;99.90;;;;;;4899922;29;20241;-62
2022/04/21 02:43:00;;;;;;;6.70;4.20;;;7.80;99.90;;;;;;4903106;29;20233;-62
2022/04/21 02:45:28;;;;;;;4.90;4.23;;;7.80;99.90;;;;;;4907124;29;20324;-62
2022/04/21 02:47:56;;;;;;;6.50;4.57;;;7.80;99.90;;;;;;4903371;29;20620;-62
2022/04/21 02:50:25;;;;;;;5.20;4.30;;;7.60;99.90;;;;;;4897950;29;20702;-62
2022/04/21 02:52:53;;;;;;;7.63;4.47;;;7.50;99.90;;;;;;4897930;29;20717;-62
2022/04/21 02:58:08;;;;;;;5.93;4.67;;;7.40;99.90;;;;;;4897652;29;20245;-62
2022/04/21 03:00:37;;;;;;;7.50;4.80;;;7.40;99.90;;;;;;4897509;29;20233;-63
2022/04/21 03:03:05;;;;;;;6.87;4.57;;;7.40;99.90;;;;;;4903132;29;20264;-62
2022/04/21 03:05:33;;;;;;;6.23;4.17;;;7.30;99.90;;;;;;4898109;29;20233;-62
2022/04/21 03:08:01;;;;;;;9.00;4.67;;;7.40;99.90;;;;;;4897716;29;20237;-62
2022/04/21 03:10:29;;;;;;;7.03;4.67;;;7.40;99.90;;;;;;4897373;29;20261;-62
2022/04/21 03:12:58;;;;;;;9.60;4.87;;;7.40;99.90;;;;;;4897545;29;20233;-62
2022/04/21 03:15:28;;;;;;;10.17;5.03;;;7.30;99.90;;;;;;4906346;29;20243;-62
2022/04/21 03:17:56;;;;;;;8.50;4.60;;;7.30;99.90;;;;;;4902925;29;20276;-62
2022/04/21 03:25:55;;;;;;;7.63;4.70;;;7.30;99.90;;;;;;4893938;29;20308;-62
2022/04/21 03:28:23;;;;;;;8.50;4.53;;;7.30;99.90;;;;;;4897050;29;20316;-62
2022/04/21 03:30:52;;;;;;;6.43;4.53;;;7.20;99.90;;;;;;4902022;29;20252;-62
2022/04/21 03:33:21;;;;;;;7.03;4.67;;;7.20;99.90;;;;;;4890156;29;20233;-62
2022/04/21 03:35:49;;;;;;;7.03;5.40;;;7.20;99.90;;;;;;4891827;29;20245;-62
2022/04/21 03:38:17;;;;;;;11.60;4.97;;;7.10;99.90;;;;;;4897127;29;20241;-62
2022/04/21 03:40:45;;;;;;;9.83;5.17;;;7.20;99.90;;;;;;4901027;29;20278;-62
2022/04/21 03:43:13;;;;;;;8.63;5.67;;;7.10;99.90;;;;;;4900028;29;20272;-62
2022/04/21 03:45:41;;;;;;;6.03;4.30;;;7.10;99.90;;;;;;4903468;29;20233;-62
2022/04/21 03:48:11;;;;;;;7.77;5.73;;;7.10;99.90;;;;;;4896824;29;20328;-62
2022/04/21 03:50:39;;;;;;;6.47;5.13;;;7.10;99.90;;;;;;4896729;29;20241;-62
2022/04/21 03:53:07;;;;;;;7.03;4.97;;;7.10;99.90;;;;;;4896917;29;20263;-62
2022/04/21 03:55:36;;;;;;;7.07;5.20;;;7.10;99.90;;;;;;4896390;29;20245;-62
2022/04/21 03:58:04;;;;;;;5.93;4.90;;;7.10;99.90;;;;;;4896573;29;20588;-62
2022/04/21 04:00:32;;;;;;;6.77;4.83;;;7.00;99.90;;;;;;4896707;29;20237;-62
2022/04/21 04:03:00;;;;;;;9.63;4.90;;;7.00;99.90;;;;;;4900961;29;20233;-62
2022/04/21 04:05:29;;;;;;;6.37;5.43;;;7.00;99.90;;;;;;4897362;29;20296;-62
2022/04/21 04:10:52;;;;;;;7.33;5.27;;;7.00;99.90;;;;;;4881303;29;20269;-62
2022/04/21 04:13:21;;;;;;;6.77;5.37;;;7.00;99.90;;;;;;4896328;29;20237;-62
2022/04/21 04:15:49;;;;;;;7.40;5.57;;;6.90;99.90;;;;;;4902228;29;20245;-62
2022/04/21 04:18:18;;;;;;;8.67;5.33;;;6.90;99.90;;;;;;4896326;29;20265;-62
2022/04/21 04:20:47;;;;;;;9.17;6.00;;;6.90;99.90;;;;;;4902815;29;20251;-62
2022/04/21 04:23:16;;;;;;;6.83;6.03;;;6.80;99.90;;;;;;4898842;29;20245;-62
2022/04/21 04:25:44;;;;;;;8.50;5.37;;;6.80;99.90;;;;;;4895973;29;20237;-62
2022/04/21 04:28:12;;;;;;;7.17;5.73;;;6.80;99.90;;;;;;4895665;29;20247;-62
2022/04/21 04:30:42;;;;;;;8.40;5.40;;;6.80;99.90;;;;;;4898919;29;20610;-62
2022/04/21 04:33:11;;;;;;;6.13;5.10;;;6.80;99.90;;;;;;4899077;29;20376;-62
2022/04/21 04:35:39;;;;;;;7.13;5.70;;;6.80;99.90;;;;;;4890979;29;20240;-62
2022/04/21 04:38:08;;;;;;;6.27;5.20;;;6.80;99.90;;;;;;4895974;29;20249;-62
2022/04/21 04:40:37;;;;;;;7.50;5.47;;;6.80;99.90;;;;;;4895661;29;20241;-62
2022/04/21 04:43:04;;;;;;;7.23;5.03;;;6.80;99.90;;;;;;4896522;29;20240;-62
2022/04/21 04:48:26;;;;;;;9.97;6.10;;;6.90;99.90;;;;;;4873521;29;20248;-62
2022/04/21 04:50:54;;;;;;;7.23;5.63;;;7.10;99.90;;;;;;4895650;29;20245;-62
2022/04/21 04:53:24;;;;;;;9.43;6.20;;;7.20;99.90;;;;;;4895633;29;20248;-62
2022/04/21 04:55:52;;;;;;;8.03;5.87;;;7.30;99.90;;;;;;4888754;29;20241;-62
2022/04/21 04:58:20;;;;;;;6.87;5.33;;;7.40;99.90;;;;;;4893056;29;20329;-62
2022/04/21 05:00:49;;;;;;;7.80;5.37;;;7.40;99.90;;;;;;4895645;29;20698;-62
2022/04/21 05:03:19;;;;;;;8.33;5.23;;;7.30;99.90;;;;;;4901498;29;20335;-62
2022/04/21 05:05:47;;;;;;;7.97;5.80;;;7.40;99.90;;;;;;4895456;29;20237;-62
2022/04/21 05:08:15;;;;;;;8.73;5.40;;;7.30;99.90;;;;;;4895591;29;20275;-62
2022/04/21 05:10:44;;;;;;;7.73;5.20;;;7.40;99.90;;;;;;4899041;29;20244;-62
2022/04/21 05:13:13;;;;;;;5.73;4.83;;;7.30;99.90;;;;;;4898641;29;20241;-62
2022/04/21 05:15:41;;;;;;;8.53;5.67;;;7.40;99.90;;;;;;4901855;29;20233;-62
2022/04/21 05:18:10;;;;;;;8.00;4.93;;;7.40;99.90;;;;;;4898807;29;20729;-63
2022/04/21 05:20:39;;;;;;;7.63;5.43;;;7.40;99.90;;;;;;4890813;29;20260;-62
2022/04/21 05:23:08;;;;;;;9.67;5.73;;;7.50;99.90;;;;;;4895453;29;20240;-62
2022/04/21 05:25:37;;;;;;;7.90;5.47;;;7.60;99.90;;;;;;4892660;29;20260;-62
2022/04/21 05:28:09;;;;;;;10.30;5.43;;;7.70;99.90;;;;;;4895450;29;20241;-62
2022/04/21 05:30:58;;;;;;;7.97;5.67;;;7.70;99.90;;;;;;4879565;29;20777;-62
2022/04/21 05:33:28;;;;;;;7.37;5.13;;;7.80;99.90;;;;;;4900715;29;20732;-62
2022/04/21 05:35:58;;;;;;;7.93;5.10;;;7.80;99.90;;;;;;4890971;29;20769;-62
2022/04/21 05:38:27;;;;;;;9.70;5.43;;;7.80;99.90;;;;;;4892006;29;20243;-62
2022/04/21 05:40:56;;;;;;;7.40;5.17;;;7.80;99.90;;;;;;4893551;29;20606;-62
2022/04/21 05:43:31;;;;;;;8.47;5.10;;;7.90;99.90;;;;;;4894805;29;20241;-62
2022/04/21 05:46:00;;;;;;;7.03;5.00;;;7.90;99.90;;;;;;4899192;29;20715;-62
2022/04/21 05:48:28;;;;;;;7.83;5.33;;;8.00;99.90;;;;;;4895126;29;20233;-62
2022/04/21 05:51:00;;;;;;;5.90;4.97;;;8.00;99.90;;;;;;4894103;29;20597;-62
2022/04/21 05:53:28;;;;;;;8.50;5.70;;;8.10;99.90;;;;;;4893761;29;20235;-62
2022/04/21 05:55:57;;;;;;;6.90;5.00;;;8.10;99.90;;;;;;4900342;29;20248;-62
2022/04/21 05:58:27;;;;;;;8.73;5.23;;;8.10;99.90;;;;;;4896326;29;20324;-62
2022/04/21 06:00:55;;;;;;;7.13;5.57;;;8.10;99.90;;;;;;4890893;29;20647;-62
2022/04/21 06:03:31;;;;;;;9.93;5.70;;;8.20;99.90;;;;;;4896330;29;20292;-62
2022/04/21 06:05:59;;;;;;;11.33;5.43;;;8.10;99.90;;;;;;4895166;29;20265;-62
2022/04/21 06:08:27;;;;;;;8.63;5.80;;;8.10;99.90;;;;;;4894901;29;20247;-62
2022/04/21 06:10:56;;;;;;;7.57;5.40;;;8.10;99.90;;;;;;4904345;29;20237;-62
2022/04/21 06:13:26;;;;;;;7.83;5.37;;;8.00;99.90;;;;;;4900237;29;20241;-62
2022/04/21 06:15:55;;;;;;;8.97;5.23;;;8.10;99.90;;;;;;4905363;29;20241;-62
2022/04/21 06:18:24;;;;;;;8.13;5.80;;;8.10;99.90;;;;;;4898371;29;20267;-62
2022/04/21 06:20:53;;;;;;;9.23;5.50;;;8.20;99.90;;;;;;4905207;29;20243;-62
2022/04/21 06:23:22;;;;;;;6.93;5.70;;;8.30;99.90;;;;;;4900665;29;20241;-62
2022/04/21 06:25:58;;;;;;;7.40;5.83;;;8.50;99.90;;;;;;4898210;29;20249;-62
2022/04/21 06:28:29;;;;;;;7.27;5.67;;;8.90;99.90;;;;;;4897833;29;20245;-62
2022/04/21 06:30:57;;;;;;;8.23;5.63;;;9.20;99.90;;;;;;4898267;29;20241;-62
2022/04/21 06:33:25;;;;;;;7.97;5.43;;;9.60;99.90;;;;;;4899257;29;20767;-62
2022/04/21 06:35:53;;;;;;;8.93;5.67;;;9.90;99.90;;;;;;4901627;29;20243;-62
2022/04/21 06:38:22;;;;;;;8.47;5.10;;;10.20;99.90;;;;;;4899920;29;20724;-62
2022/04/21 06:40:50;;;;;;;6.33;5.00;;;10.30;99.90;;;;;;4898358;29;20249;-62
2022/04/21 06:48:51;;;;;;;6.97;5.37;;;9.70;99.90;;;;;;4891780;29;20292;-62
2022/04/21 06:51:19;;;;;;;5.67;4.70;;;9.60;99.90;;;;;;4905483;29;20573;-62
2022/04/21 06:53:48;;;;;;;5.80;4.80;;;9.70;99.90;;;;;;4897807;29;20264;-62
2022/04/21 06:56:16;;;;;;;6.57;4.57;;;9.80;99.90;;;;;;4897785;29;20705;-62
2022/04/21 06:58:44;;;;;;;7.63;5.67;;;10.00;99.90;;;;;;4897141;29;20332;-62
2022/04/21 07:01:14;;;;;;;5.50;4.40;;;10.10;99.90;;;;;;4897585;29;20237;-62
2022/04/21 07:03:42;;;;;;;5.30;4.80;;;10.10;99.90;;;;;;4903481;29;20253;-62
2022/04/21 07:06:11;;;;;;;6.40;5.20;;;10.20;99.90;;;;;;4893973;29;20253;-62
2022/04/21 07:08:39;;;;;;;8.53;5.00;;;10.50;99.90;;;;;;4891464;29;20234;-62
2022/04/21 07:11:07;;;;;;;5.67;4.67;;;10.80;99.90;;;;;;4904258;29;20313;-62
2022/04/21 07:13:35;;;;;;;6.10;5.47;;;11.30;99.90;;;;;;4898117;29;20270;-62
2022/04/21 07:16:04;;;;;;;6.83;4.47;;;11.60;99.90;;;;;;4908877;29;20705;-61
2022/04/21 07:18:34;;;;;;;7.30;4.47;;;11.90;99.90;;;;;;4897259;29;20246;-62
2022/04/21 07:21:04;;;;;;;9.07;4.93;;;11.90;99.90;;;;;;4900008;29;20243;-62
2022/04/21 07:23:34;;;;;;;6.13;4.80;;;11.70;99.90;;;;;;4897365;29;20244;-62
2022/04/21 07:26:02;;;;;;;9.60;4.93;;;11.70;99.90;;;;;;4897655;29;20294;-62
2022/04/21 07:28:30;;;;;;;6.60;4.53;;;11.80;99.90;;;;;;4896813;29;20549;-62
2022/04/21 07:30:58;;;;;;;5.43;4.30;;;11.90;99.90;;;;;;4897518;29;20245;-61
2022/04/21 07:33:26;;;;;;;7.07;4.90;;;11.90;99.90;;;;;;4901987;29;20710;-62
2022/04/21 07:35:56;;;;;;;6.10;4.87;;;12.20;99.90;;;;;;4893785;29;20783;-62
2022/04/21 07:38:25;;;;;;;6.30;4.27;;;12.30;99.90;;;;;;4896958;29;20659;-62
2022/04/21 07:40:53;;;;;;;8.17;4.80;;;12.40;99.90;;;;;;4901860;29;20238;-62
2022/04/21 07:43:22;;;;;;;5.40;4.33;;;12.40;99.90;;;;;;4898820;29;20647;-62
2022/04/21 07:45:51;;;;;;;7.23;4.20;;;12.40;99.90;;;;;;4903436;29;20310;-62
2022/04/21 07:48:19;;;;;;;5.03;4.00;;;12.50;99.90;;;;;;4897197;29;20253;-62
2022/04/21 07:50:47;;;;;;;7.70;4.50;;;12.30;99.90;;;;;;4896865;29;20296;-62
2022/04/21 07:53:22;;;;;;;5.87;4.60;;;12.50;99.90;;;;;;4896941;29;20239;-62
2022/04/21 07:55:52;;;;;;;6.90;4.40;;;12.80;99.90;;;;;;4896972;29;20252;-62
2022/04/21 07:58:21;;;;;;;5.43;4.07;;;13.20;99.90;;;;;;4896702;29;20721;-63
2022/04/21 08:00:50;;;;;;;3.87;3.53;;;13.50;99.90;;;;;;4896634;29;20312;-62
2022/04/21 08:03:19;;;;;;;4.93;3.93;;;13.60;99.90;;;;;;4902273;29;20704;-62
2022/04/21 08:05:48;;;;;;;5.40;3.73;;;13.80;99.90;;;;;;4900613;29;20241;-62
2022/04/21 08:08:16;;;;;;;4.00;3.60;;;13.90;99.90;;;;;;4898027;29;20254;-62
2022/04/21 08:10:46;;;;;;;5.10;3.43;;;14.10;99.90;;;;;;4896249;29;20276;-62
2022/04/21 08:13:17;;;;;;;5.70;3.07;;;14.20;99.90;;;;;;4892077;29;20726;-62
2022/04/21 08:15:48;;;;;;;5.50;3.50;;;14.20;99.90;;;;;;4896563;29;20613;-62
2022/04/21 08:18:17;;;;;;;4.33;2.93;;;14.20;99.90;;;;;;4896048;29;20266;-62
2022/04/21 08:20:47;;;;;;;6.90;3.43;;;14.30;99.90;;;;;;4895194;29;20300;-62
2022/04/21 08:23:16;;;;;;;3.23;2.90;;;14.30;99.90;;;;;;4896130;29;20609;-62
2022/04/21 08:34:16;;;;;;;4.77;3.00;;;14.90;99.90;;;;;;4901045;29;20244;-62
2022/04/21 08:36:49;;;;;;;3.60;2.80;;;14.70;99.90;;;;;;4895555;29;20721;-63
2022/04/21 08:39:18;;;;;;;3.30;2.80;;;14.70;99.90;;;;;;4896156;29;20289;-62
2022/04/21 08:41:49;;;;;;;3.87;2.87;;;14.70;99.90;;;;;;4895757;29;20264;-62
2022/04/21 08:44:20;;;;;;;2.87;2.57;;;14.50;99.90;;;;;;4900361;29;20243;-62
2022/04/21 08:46:49;;;;;;;3.17;2.60;;;14.90;99.90;;;;;;4896524;29;20729;-62
2022/04/21 08:49:21;;;;;;;3.37;2.60;;;15.10;99.90;;;;;;4895751;29;20245;-62
2022/04/21 08:51:50;;;;;;;3.73;2.70;;;15.20;99.90;;;;;;4895798;29;20289;-62
2022/04/21 08:54:18;;;;;;;3.90;2.60;;;15.20;99.90;;;;;;4895706;29;20252;-62
2022/04/21 08:56:49;;;;;;;4.50;2.73;;;15.50;99.90;;;;;;4899542;29;20713;-62
2022/04/21 08:59:19;;;;;;;2.93;2.57;;;15.80;99.90;;;;;;4895386;29;20237;-62
2022/04/21 09:01:47;;;;;;;4.37;2.63;;;15.90;99.90;;;;;;4888744;29;20334;-62
2022/04/21 09:04:16;;;;;;;3.20;2.50;;;16.00;99.90;;;;;;4901428;29;20579;-63
2022/04/21 09:06:44;;;;;;;3.60;2.57;;;16.10;99.90;;;;;;4895529;29;20260;-63
2022/04/21 09:09:17;;;;;;;3.20;2.30;;;16.20;99.90;;;;;;4895359;29;20247;-63
2022/04/21 09:11:50;;;;;;;3.73;2.60;;;16.40;99.90;;;;;;4894604;29;20241;-62
2022/04/21 09:14:20;;;;;;;3.63;2.47;;;16.50;99.90;;;;;;4895203;29;20293;-63
2022/04/21 09:16:48;;;;;;;3.53;2.73;;;16.40;99.90;;;;;;4901723;29;20236;-62
2022/04/21 09:19:17;;;;;;;3.13;2.40;;;16.60;99.90;;;;;;4893989;29;20251;-62
2022/04/21 09:21:46;;;;;;;2.93;2.37;;;16.80;99.90;;;;;;4889953;29;20229;-63
2022/04/21 09:24:21;;;;;;;5.77;2.30;;;16.70;99.90;;;;;;4895157;29;20654;-63
2022/04/21 09:26:51;;;;;;;3.93;2.40;;;16.50;99.90;;;;;;4895225;29;20626;-63
2022/04/21 09:29:24;;;;;;;3.53;2.40;;;16.20;99.90;;;;;;4895101;29;20240;-62
2022/04/21 09:31:59;;;;;;;3.70;2.57;;;16.30;99.90;;;;;;4895267;29;20744;-63
2022/04/21 09:34:35;;;;;;;2.53;2.33;;;16.70;99.90;;;;;;4900817;29;20269;-63
2022/04/21 09:37:06;;;;;;;4.40;2.73;;;16.90;99.90;;;;;;4902520;29;20324;-63
2022/04/21 09:39:39;;;;;;;2.73;2.23;;;16.70;99.90;;;;;;4898716;29;20256;-63
2022/04/21 09:42:09;;;;;;;2.50;2.20;;;16.80;99.90;;;;;;4901077;29;20241;-63
2022/04/21 09:47:30;;;;;;;4.43;2.70;;;16.80;99.90;;;;;;4900289;29;20252;-63
2022/04/21 09:50:10;;;;;;;4.60;2.37;;;16.60;99.90;;;;;;4898847;29;20756;-63
2022/04/21 09:52:49;;;;;;;3.73;2.20;;;16.70;99.90;;;;;;4892049;29;20275;-63
2022/04/21 09:55:25;;;;;;;4.23;2.60;;;17.00;99.90;;;;;;4898575;29;20245;-63
2022/04/21 09:58:05;;;;;;;3.07;2.40;;;17.10;99.90;;;;;;4900647;29;20327;-63
2022/04/21 10:00:35;;;;;;;2.40;2.20;;;17.20;99.90;;;;;;4899224;29;20245;-63
2022/04/21 10:03:05;;;;;;;4.43;2.20;;;17.40;99.90;;;;;;4903738;29;20273;-63
2022/04/21 10:05:35;;;;;;;2.43;2.10;;;17.70;99.90;;;;;;4898246;29;20336;-63
2022/04/21 10:08:05;;;;;;;3.83;2.47;;;18.30;99.90;;;;;;4898399;29;20245;-63
2022/04/21 10:10:35;;;;;;;3.20;2.33;;;17.50;99.90;;;;;;4896978;29;20245;-63
2022/04/21 10:13:06;;;;;;;5.03;2.27;;;17.50;99.90;;;;;;4884633;29;20234;-62
2022/04/21 10:15:36;;;;;;;2.30;2.10;;;17.60;99.90;;;;;;4895761;29;20324;-63
2022/04/21 10:18:07;;;;;;;2.57;2.37;;;18.00;99.90;;;;;;4899557;29;20282;-63
2022/04/21 10:20:36;;;;;;;2.53;2.10;;;18.20;99.90;;;;;;4899921;29;20325;-62
2022/04/21 10:23:11;;;;;;;2.40;2.13;;;18.30;99.90;;;;;;4897010;29;20305;-63
2022/04/21 10:25:40;;;;;;;5.13;2.00;;;18.50;99.90;;;;;;4889859;29;20237;-63
2022/04/21 10:28:37;;;;;;;2.63;2.33;;;18.80;99.90;;;;;;4896595;29;20667;-63
2022/04/21 10:31:46;;;;;;;3.00;2.10;;;18.90;99.90;;;;;;4899708;29;20249;-62
2022/04/21 10:34:32;;;;;;;5.53;2.20;;;19.00;99.70;;;;;;4846772;29;20239;-62
2022/04/21 10:37:12;;;;;;;2.10;1.90;;;19.10;99.60;;;;;;4838591;29;20335;-62
2022/04/21 10:39:41;;;;;;;2.70;2.00;;;19.10;98.90;;;;;;4887251;29;20298;-62
2022/04/21 10:42:17;;;;;;;3.43;2.30;;;19.30;99.70;;;;;;4909204;29;20683;-62
2022/04/21 10:44:51;;;;;;;5.73;1.97;;;19.30;98.70;;;;;;4905594;29;20391;-63
2022/04/21 10:47:37;;;;;;;2.80;1.80;;;19.10;98.10;;;;;;4905450;29;20251;-63
2022/04/21 10:50:19;;;;;;;3.40;1.70;;;18.90;98.50;;;;;;4894972;29;20243;-63
2022/04/21 10:58:51;;;;;;;3.03;1.87;;;18.80;98.10;;;;;;4903418;29;20239;-62
2022/04/21 11:01:38;;;;;;;3.10;2.10;;;19.10;98.20;;;;;;4893800;29;20585;-63
2022/04/21 11:04:22;;;;;;;2.97;1.87;;;19.20;97.40;;;;;;4888446;29;20253;-63
2022/04/21 11:07:13;;;;;;;2.67;2.00;;;19.10;97.30;;;;;;4888617;29;20256;-63
2022/04/21 11:09:50;;;;;;;3.80;1.97;;;19.10;98.00;;;;;;4883026;29;20238;-62
2022/04/21 11:12:46;;;;;;;1.90;1.80;;;19.00;97.40;;;;;;4900651;29;20242;-63
2022/04/21 11:15:39;;;;;;;4.00;2.23;;;19.20;97.80;;;;;;4896256;29;20232;-62
2022/04/21 11:18:10;;;;;;;2.17;1.90;;;19.20;97.40;;;;;;4876727;29;20244;-63
2022/04/21 11:20:40;;;;;;;7.30;1.97;;;19.60;98.20;;;;;;4891558;29;20259;-63
2022/04/21 11:23:10;;;;;;;3.07;1.90;;;19.70;97.30;;;;;;4905351;29;20330;-63
2022/04/21 11:25:41;;;;;;;3.60;1.90;;;19.60;97.10;;;;;;4898461;29;20239;-62
2022/04/21 11:28:10;;;;;;;3.10;2.30;;;19.60;97.20;;;;;;4899742;29;20247;-63
2022/04/21 11:30:41;;;;;;;3.53;2.07;;;19.40;96.90;;;;;;4896259;29;20342;-63
2022/04/21 11:33:11;;;;;;;3.97;2.20;;;19.70;96.90;;;;;;4899388;29;20252;-63
2022/04/21 11:35:39;;;;;;;2.63;2.20;;;19.80;96.60;;;;;;4893825;29;20239;-63
2022/04/21 11:38:07;;;;;;;2.17;1.90;;;19.70;96.10;;;;;;4893052;29;20322;-62
2022/04/21 11:40:37;;;;;;;3.70;2.37;;;19.60;97.50;;;;;;4891716;29;20247;-63
2022/04/21 11:43:13;;;;;;;2.60;2.10;;;20.00;96.90;;;;;;4889087;29;20247;-63
2022/04/21 11:45:44;;;;;;;3.23;2.30;;;20.10;96.60;;;;;;4893798;29;20598;-63
2022/04/21 11:48:15;;;;;;;3.00;2.30;;;19.80;96.30;;;;;;4891402;29;20271;-63
2022/04/21 11:50:46;;;;;;;4.93;2.07;;;19.30;97.40;;;;;;4886733;29;20740;-63
2022/04/21 11:53:18;;;;;;;5.63;2.40;;;19.40;97.50;;;;;;4896865;29;20247;-63
2022/04/21 11:55:47;;;;;;;5.00;2.73;;;19.40;97.30;;;;;;4886448;29;20246;-63
2022/04/21 11:58:27;;;;;;;2.37;1.97;;;19.30;97.70;;;;;;4896571;29;20711;-63
2022/04/21 12:06:38;;;;;;;3.87;1.90;;;18.60;97.50;;;;;;4895590;29;20243;-63
2022/04/21 12:09:09;;;;;;;78.73;8.57;;;18.50;98.20;;;;;;4889279;29;20240;-63
2022/04/21 12:11:37;;;;;;;14.43;3.17;;;18.70;97.90;;;;;;4889951;29;20318;-63
2022/04/21 12:14:06;;;;;;;7.73;2.73;;;18.80;98.10;;;;;;4896238;29;20251;-63
2022/04/21 12:16:42;;;;;;;6.40;2.40;;;18.80;98.80;;;;;;4901914;29;20248;-63
2022/04/21 12:19:21;;;;;;;3.47;2.43;;;18.60;98.60;;;;;;4899537;29;20243;-63
2022/04/21 12:22:02;;;;;;;4.23;2.10;;;18.30;99.10;;;;;;4902644;29;20248;-63
2022/04/21 12:24:37;;;;;;;6.90;2.63;;;18.30;99.60;;;;;;4896021;29;20294;-63
2022/04/21 12:27:11;;;;;;;7.00;2.40;;;18.20;99.90;;;;;;4896115;29;20240;-63
2022/04/21 12:29:48;;;;;;;4.03;2.27;;;18.10;99.60;;;;;;4888053;29;20292;-63
2022/04/21 12:32:20;;;;;;;3.03;1.80;;;17.70;99.40;;;;;;4890428;29;20272;-63
2022/04/21 12:34:50;;;;;;;3.80;2.17;;;17.60;99.90;;;;;;4894457;29;20298;-63
2022/04/21 12:37:25;;;;;;;6.20;2.00;;;17.50;99.70;;;;;;4893391;29;20823;-63
2022/04/21 12:39:53;;;;;;;5.30;2.23;;;17.50;99.80;;;;;;4899076;29;20607;-63
2022/04/21 12:42:43;;;;;;;4.57;1.67;;;17.50;99.40;;;;;;4892647;29;20260;-63
2022/04/21 12:45:12;;;;;;;4.13;2.37;;;17.20;98.80;;;;;;4893211;29;20318;-63
2022/04/21 12:47:45;;;;;;;4.63;2.10;;;17.10;99.20;;;;;;4889788;29;20725;-63
2022/04/21 12:50:20;;;;;;;2.67;1.87;;;17.30;99.60;;;;;;4895965;29;20249;-63
2022/04/21 12:52:49;;;;;;;3.53;1.90;;;17.40;99.90;;;;;;4895710;29;20308;-63
2022/04/21 12:55:25;;;;;;;2.73;1.80;;;17.40;99.70;;;;;;4895721;29;20249;-63
2022/04/21 12:58:05;;;;;;;3.53;1.80;;;17.50;99.90;;;;;;4895068;29;20246;-63
2022/04/21 13:00:35;;;;;;;5.07;1.93;;;17.60;99.80;;;;;;4895861;29;20243;-63
2022/04/21 13:03:03;;;;;;;4.23;2.00;;;17.40;99.70;;;;;;4889968;29;20245;-63
2022/04/21 13:05:33;;;;;;;4.40;1.80;;;17.10;99.70;;;;;;4894756;29;20245;-63
2022/04/21 13:08:01;;;;;;;2.23;1.70;;;17.20;99.60;;;;;;4893488;29;20245;-63
2022/04/21 13:10:30;;;;;;;3.30;1.90;;;17.20;99.90;;;;;;4894820;29;20599;-63
2022/04/21 13:12:58;;;;;;;4.33;1.50;;;17.10;99.90;;;;;;4893426;29;20634;-63
2022/04/21 13:15:26;;;;;;;5.67;1.87;;;17.20;99.90;;;;;;4902359;29;20244;-63
2022/04/21 13:17:54;;;;;;;4.50;1.70;;;17.10;99.90;;;;;;4889938;29;20309;-63
2022/04/21 13:23:06;;;;;;;4.50;2.30;;;17.30;99.80;;;;;;4895018;29;20246;-63
2022/04/21 13:25:41;;;;;;;2.40;1.70;;;17.20;99.70;;;;;;4887940;29;20244;-63
2022/04/21 13:28:10;;;;;;;3.17;1.80;;;17.30;99.90;;;;;;4899035;29;20244;-63
2022/04/21 13:30:38;;;;;;;2.93;1.87;;;17.20;99.90;;;;;;4879530;29;20647;-63
2022/04/21 13:33:24;;;;;;;5.93;2.20;;;17.30;99.90;;;;;;4895091;29;20249;-63
2022/04/21 13:35:54;;;;;;;5.97;2.07;;;17.20;99.90;;;;;;4893747;29;20597;-63
2022/04/21 13:38:24;;;;;;;6.27;2.00;;;17.30;99.90;;;;;;4893749;29;20238;-63
2022/04/21 13:40:52;;;;;;;5.20;1.80;;;17.30;99.90;;;;;;4898943;29;20245;-63
2022/04/21 13:43:20;;;;;;;3.67;2.00;;;17.50;99.90;;;;;;4896449;29;20746;-63
2022/04/21 13:46:08;;;;;;;5.40;2.27;;;17.60;99.90;;;;;;4900689;29;20245;-63
2022/04/21 13:48:36;;;;;;;2.23;1.60;;;17.40;99.90;;;;;;4890273;29;20245;-63
2022/04/21 13:51:04;;;;;;;3.00;2.40;;;17.20;99.90;;;;;;4895310;29;20302;-63
2022/04/21 13:53:34;;;;;;;4.33;1.93;;;17.00;99.90;;;;;;4893496;29;20248;-63
2022/04/21 13:56:06;;;;;;;4.20;1.70;;;16.90;99.90;;;;;;4901070;29;20267;-63
2022/04/21 13:58:35;;;;;;;5.00;1.83;;;16.90;99.90;;;;;;4895354;29;20305;-63
2022/04/21 14:01:03;;;;;;;2.20;1.90;;;16.80;99.90;;;;;;4894909;29;20265;-63